ANA739 RJOO-RJSS
Flight info
| Callsign | ANA739 |
|---|---|
| Flight time | 0h 58m |
| Altitude | 33000 |
| Route | MINAC4 MINAC DCT YOKKA DCT KCC Y88 TENRU Y15 OWLET OWLEEB |
| Aircraft | A321/M-VGDW/C |
Departure
| Time | 2026-05-04 10:54 |
|---|---|
| Airport | Osaka Itami International Airport (RJOO) |
Arrival
| Time | 2026-05-04 11:53 |
|---|---|
| Airport | Sendai Airport (RJSS) |
| Time | Latitude | Longitude | Altitude | Speed | Heading |
|---|---|---|---|---|---|
| 2026-05-04 10:09 | 34.78816 | 135.44284 | 49 ft | 0 kts | 67° |
| 2026-05-04 10:37 | 34.78811 | 135.44269 | 45 ft | 4 kts | 67° |
| 2026-05-04 10:37 | 34.78804 | 135.44249 | 47 ft | 4 kts | 67° |
| 2026-05-04 10:39 | 34.78784 | 135.44076 | 46 ft | 3 kts | 135° |
| 2026-05-04 10:39 | 34.78803 | 135.44053 | 46 ft | 4 kts | 135° |
| 2026-05-04 10:39 | 34.78814 | 135.44040 | 45 ft | 0 kts | 135° |
| 2026-05-04 10:44 | 34.78494 | 135.44300 | 46 ft | 11 kts | 135° |
| 2026-05-04 10:45 | 34.78434 | 135.44334 | 49 ft | 9 kts | 173° |
| 2026-05-04 10:45 | 34.78379 | 135.44333 | 50 ft | 8 kts | 181° |
| 2026-05-04 10:45 | 34.78304 | 135.44333 | 49 ft | 14 kts | 180° |
| 2026-05-04 10:45 | 34.78207 | 135.44334 | 49 ft | 13 kts | 176° |
| 2026-05-04 10:46 | 34.78130 | 135.44389 | 49 ft | 15 kts | 135° |
| 2026-05-04 10:46 | 34.78034 | 135.44506 | 46 ft | 23 kts | 135° |
| 2026-05-04 10:46 | 34.77910 | 135.44657 | 47 ft | 25 kts | 135° |
| 2026-05-04 10:46 | 34.77790 | 135.44803 | 45 ft | 23 kts | 135° |
| 2026-05-04 10:47 | 34.77679 | 135.44938 | 48 ft | 22 kts | 135° |
| 2026-05-04 10:47 | 34.77566 | 135.45074 | 49 ft | 25 kts | 135° |
| 2026-05-04 10:47 | 34.77457 | 135.45207 | 47 ft | 20 kts | 135° |
| 2026-05-04 10:47 | 34.77375 | 135.45291 | 49 ft | 12 kts | 152° |
| 2026-05-04 10:49 | 34.77275 | 135.45277 | 48 ft | 0 kts | 230° |
| 2026-05-04 10:51 | 34.77268 | 135.45128 | 51 ft | 5 kts | 312° |
| 2026-05-04 10:52 | 34.77278 | 135.45116 | 49 ft | 0 kts | 315° |
| 2026-05-04 10:54 | 34.79676 | 135.40572 | 1570 ft | 159 kts | 244° |
| 2026-05-04 10:54 | 34.79103 | 135.39380 | 1751 ft | 171 kts | 221° |
| 2026-05-04 10:56 | 34.77611 | 135.47297 | 4391 ft | 290 kts | 66° |
| 2026-05-04 10:56 | 34.78606 | 135.49487 | 4790 ft | 306 kts | 65° |
| 2026-05-04 10:56 | 34.79359 | 135.51902 | 5378 ft | 304 kts | 90° |
| 2026-05-04 10:57 | 34.79332 | 135.54458 | 6019 ft | 303 kts | 100° |
| 2026-05-04 10:57 | 34.79212 | 135.57050 | 6659 ft | 310 kts | 99° |
| 2026-05-04 10:57 | 34.79106 | 135.59684 | 7263 ft | 317 kts | 98° |
| 2026-05-04 10:57 | 34.79006 | 135.62386 | 7893 ft | 323 kts | 98° |
| 2026-05-04 10:58 | 34.78907 | 135.65134 | 8524 ft | 329 kts | 98° |
| 2026-05-04 10:58 | 34.78808 | 135.67936 | 9176 ft | 334 kts | 98° |
| 2026-05-04 10:58 | 34.78723 | 135.70783 | 9805 ft | 341 kts | 94° |
| 2026-05-04 10:58 | 34.79024 | 135.73686 | 10355 ft | 352 kts | 78° |
| 2026-05-04 10:59 | 34.79829 | 135.76547 | 10695 ft | 367 kts | 70° |
| 2026-05-04 10:59 | 34.80761 | 135.79540 | 10825 ft | 388 kts | 70° |
| 2026-05-04 10:59 | 34.81745 | 135.82693 | 11052 ft | 404 kts | 70° |
| 2026-05-04 10:59 | 34.82748 | 135.85919 | 11576 ft | 410 kts | 71° |
| 2026-05-04 11:00 | 34.83758 | 135.89183 | 12160 ft | 414 kts | 70° |
| 2026-05-04 11:01 | 34.90993 | 136.12771 | 15864 ft | 437 kts | 70° |
| 2026-05-04 11:02 | 34.92056 | 136.16252 | 16358 ft | 440 kts | 70° |
| 2026-05-04 11:02 | 34.93123 | 136.19758 | 16848 ft | 442 kts | 70° |
| 2026-05-04 11:05 | 35.13415 | 136.67998 | 22489 ft | 476 kts | 54° |
| 2026-05-04 11:06 | 35.15288 | 136.71346 | 22835 ft | 478 kts | 54° |
| 2026-05-04 11:06 | 35.17171 | 136.74715 | 23197 ft | 481 kts | 54° |
| 2026-05-04 11:06 | 35.19065 | 136.78103 | 23522 ft | 484 kts | 54° |
| 2026-05-04 11:06 | 35.20969 | 136.81502 | 23794 ft | 486 kts | 54° |
| 2026-05-04 11:08 | 35.32287 | 137.07373 | 25797 ft | 503 kts | 66° |
| 2026-05-04 11:10 | 35.42434 | 137.35171 | 27737 ft | 519 kts | 65° |
| 2026-05-04 11:12 | 35.53349 | 137.63707 | 29475 ft | 535 kts | 66° |
| 2026-05-04 11:12 | 35.54922 | 137.67856 | 29707 ft | 537 kts | 65° |
| 2026-05-04 11:12 | 35.56498 | 137.72016 | 29914 ft | 539 kts | 65° |
| 2026-05-04 11:12 | 35.58083 | 137.76204 | 30104 ft | 541 kts | 65° |
| 2026-05-04 11:13 | 35.59671 | 137.80407 | 30306 ft | 543 kts | 65° |
| 2026-05-04 11:13 | 35.61242 | 137.84634 | 30540 ft | 543 kts | 66° |
| 2026-05-04 11:13 | 35.62781 | 137.88869 | 30775 ft | 543 kts | 66° |
| 2026-05-04 11:13 | 35.64304 | 137.93122 | 31028 ft | 543 kts | 65° |
| 2026-05-04 11:14 | 35.66048 | 137.97172 | 31305 ft | 543 kts | 57° |
| 2026-05-04 11:14 | 35.68256 | 138.00995 | 31576 ft | 540 kts | 47° |
| 2026-05-04 11:14 | 35.70787 | 138.04307 | 31818 ft | 537 kts | 38° |
| 2026-05-04 11:16 | 35.90953 | 138.24170 | 32823 ft | 521 kts | 33° |
| 2026-05-04 11:16 | 35.96622 | 138.29744 | 32803 ft | 521 kts | 33° |
| 2026-05-04 11:17 | 36.02287 | 138.35309 | 32817 ft | 520 kts | 33° |
| 2026-05-04 11:19 | 36.24973 | 138.57758 | 32802 ft | 523 kts | 33° |
| 2026-05-04 11:19 | 36.30648 | 138.63426 | 32778 ft | 524 kts | 33° |
| 2026-05-04 11:20 | 36.36338 | 138.69120 | 32788 ft | 525 kts | 33° |
| 2026-05-04 11:20 | 36.42029 | 138.74833 | 32775 ft | 527 kts | 33° |
| 2026-05-04 11:22 | 36.64918 | 138.97900 | 32808 ft | 531 kts | 33° |
| 2026-05-04 11:23 | 36.70636 | 139.03679 | 32836 ft | 532 kts | 33° |
| 2026-05-04 11:24 | 36.88426 | 139.21695 | 32859 ft | 571 kts | 35° |
| 2026-05-04 11:25 | 36.91523 | 139.24834 | 32738 ft | 575 kts | 35° |
| 2026-05-04 11:25 | 36.94653 | 139.28000 | 31770 ft | 583 kts | 35° |
| 2026-05-04 11:25 | 36.97801 | 139.31189 | 31133 ft | 582 kts | 35° |
| 2026-05-04 11:26 | 37.04106 | 139.37603 | 29772 ft | 583 kts | 35° |
| 2026-05-04 11:27 | 37.24349 | 139.58289 | 25786 ft | 542 kts | 34° |
| 2026-05-04 11:28 | 37.27245 | 139.61255 | 25149 ft | 534 kts | 34° |
| 2026-05-04 11:28 | 37.30093 | 139.64184 | 24634 ft | 523 kts | 34° |
| 2026-05-04 11:28 | 37.32874 | 139.67049 | 24190 ft | 512 kts | 34° |
| 2026-05-04 11:28 | 37.35594 | 139.69859 | 23729 ft | 502 kts | 34° |
| 2026-05-04 11:29 | 37.38216 | 139.72613 | 23247 ft | 495 kts | 38° |
| 2026-05-04 11:29 | 37.40586 | 139.75749 | 22776 ft | 495 kts | 49° |
| 2026-05-04 11:29 | 37.42578 | 139.79281 | 22312 ft | 491 kts | 56° |
| 2026-05-04 11:29 | 37.44447 | 139.82859 | 21844 ft | 487 kts | 56° |
| 2026-05-04 11:31 | 37.57165 | 140.07250 | 18588 ft | 467 kts | 57° |
| 2026-05-04 11:33 | 37.69167 | 140.30460 | 15438 ft | 431 kts | 57° |
| 2026-05-04 11:33 | 37.70795 | 140.33619 | 15023 ft | 425 kts | 56° |
| 2026-05-04 11:33 | 37.72368 | 140.36677 | 14649 ft | 418 kts | 56° |
| 2026-05-04 11:34 | 37.73948 | 140.39747 | 14257 ft | 414 kts | 56° |
| 2026-05-04 11:34 | 37.75506 | 140.42779 | 13828 ft | 410 kts | 56° |
| 2026-05-04 11:34 | 37.77047 | 140.45781 | 13508 ft | 403 kts | 56° |
| 2026-05-04 11:34 | 37.78542 | 140.48752 | 13163 ft | 397 kts | 57° |
| 2026-05-04 11:35 | 37.79973 | 140.51718 | 12738 ft | 393 kts | 58° |
| 2026-05-04 11:35 | 37.81365 | 140.54677 | 12320 ft | 390 kts | 58° |
| 2026-05-04 11:35 | 37.82735 | 140.57619 | 11889 ft | 387 kts | 58° |
| 2026-05-04 11:35 | 37.84098 | 140.60544 | 11471 ft | 384 kts | 58° |
| 2026-05-04 11:36 | 37.85456 | 140.63449 | 11042 ft | 382 kts | 57° |
| 2026-05-04 11:36 | 37.86812 | 140.66332 | 10599 ft | 380 kts | 57° |
| 2026-05-04 11:36 | 37.88161 | 140.69197 | 10265 ft | 376 kts | 56° |
| 2026-05-04 11:36 | 37.89467 | 140.72009 | 10119 ft | 364 kts | 57° |
| 2026-05-04 11:37 | 37.90718 | 140.74728 | 9995 ft | 351 kts | 57° |
| 2026-05-04 11:37 | 37.91923 | 140.77359 | 9704 ft | 341 kts | 56° |
| 2026-05-04 11:37 | 37.93105 | 140.79940 | 9144 ft | 336 kts | 56° |
| 2026-05-04 11:37 | 37.94267 | 140.82474 | 8588 ft | 330 kts | 56° |
| 2026-05-04 11:38 | 37.95416 | 140.84979 | 8182 ft | 327 kts | 55° |
| 2026-05-04 11:38 | 37.96563 | 140.87469 | 7795 ft | 324 kts | 55° |
| 2026-05-04 11:38 | 37.97666 | 140.89880 | 7527 ft | 307 kts | 54° |
| 2026-05-04 11:38 | 37.98681 | 140.92227 | 7170 ft | 304 kts | 64° |
| 2026-05-04 11:39 | 37.99110 | 140.94840 | 6868 ft | 305 kts | 91° |
| 2026-05-04 11:39 | 37.98712 | 140.97406 | 6533 ft | 298 kts | 119° |
| 2026-05-04 11:40 | 37.89913 | 140.99381 | 5456 ft | 208 kts | 238° |
| 2026-05-04 11:41 | 37.89063 | 140.97941 | 5113 ft | 202 kts | 245° |
| 2026-05-04 11:41 | 37.88430 | 140.96389 | 4774 ft | 195 kts | 256° |
| 2026-05-04 11:41 | 37.88126 | 140.94742 | 4442 ft | 191 kts | 267° |
| 2026-05-04 11:41 | 37.88140 | 140.93075 | 4102 ft | 189 kts | 278° |
| 2026-05-04 11:42 | 37.88472 | 140.91473 | 4035 ft | 191 kts | 289° |
| 2026-05-04 11:42 | 37.89118 | 140.89984 | 4031 ft | 196 kts | 301° |
| 2026-05-04 11:42 | 37.90058 | 140.88724 | 4031 ft | 203 kts | 313° |
| 2026-05-04 11:42 | 37.91290 | 140.87773 | 3997 ft | 214 kts | 326° |
| 2026-05-04 11:43 | 37.92759 | 140.87265 | 3859 ft | 226 kts | 342° |
| 2026-05-04 11:43 | 37.94371 | 140.87332 | 3727 ft | 241 kts | 359° |
| 2026-05-04 11:43 | 37.95991 | 140.88077 | 3591 ft | 257 kts | 19° |
| 2026-05-04 11:43 | 37.97407 | 140.89540 | 3459 ft | 271 kts | 41° |
| 2026-05-04 11:44 | 37.98511 | 140.91518 | 3329 ft | 276 kts | 50° |
| 2026-05-04 11:44 | 37.99513 | 140.93605 | 3204 ft | 278 kts | 53° |
| 2026-05-04 11:44 | 38.00466 | 140.95735 | 3075 ft | 277 kts | 53° |
| 2026-05-04 11:44 | 38.01400 | 140.97864 | 2948 ft | 276 kts | 53° |
| 2026-05-04 11:45 | 38.02337 | 140.99990 | 2814 ft | 276 kts | 53° |
| 2026-05-04 11:45 | 38.03282 | 141.02104 | 2695 ft | 275 kts | 53° |
| 2026-05-04 11:45 | 38.04220 | 141.04185 | 2550 ft | 274 kts | 53° |
| 2026-05-04 11:45 | 38.05156 | 141.06254 | 2435 ft | 267 kts | 53° |
| 2026-05-04 11:46 | 38.06061 | 141.08254 | 2344 ft | 257 kts | 52° |
| 2026-05-04 11:46 | 38.06941 | 141.10189 | 2209 ft | 251 kts | 51° |
| 2026-05-04 11:46 | 38.07988 | 141.11877 | 2070 ft | 237 kts | 32° |
| 2026-05-04 11:46 | 38.09305 | 141.13022 | 1943 ft | 223 kts | 14° |
| 2026-05-04 11:47 | 38.10724 | 141.13615 | 1810 ft | 206 kts | 359° |
| 2026-05-04 11:47 | 38.12073 | 141.13726 | 1699 ft | 185 kts | 345° |
| 2026-05-04 11:47 | 38.13322 | 141.13530 | 1613 ft | 179 kts | 341° |
| 2026-05-04 11:47 | 38.14527 | 141.13308 | 1527 ft | 169 kts | 335° |
| 2026-05-04 11:48 | 38.15473 | 141.12605 | 1516 ft | 153 kts | 307° |
| 2026-05-04 11:48 | 38.15960 | 141.11455 | 1512 ft | 147 kts | 282° |
| 2026-05-04 11:48 | 38.15954 | 141.10167 | 1513 ft | 145 kts | 266° |
| 2026-05-04 11:48 | 38.15827 | 141.08966 | 1521 ft | 132 kts | 267° |
| 2026-05-04 11:49 | 38.15712 | 141.07828 | 1514 ft | 128 kts | 267° |
| 2026-05-04 11:49 | 38.15598 | 141.06710 | 1510 ft | 127 kts | 267° |
| 2026-05-04 11:49 | 38.15485 | 141.05596 | 1505 ft | 127 kts | 267° |
| 2026-05-04 11:49 | 38.15373 | 141.04484 | 1504 ft | 127 kts | 267° |
| 2026-05-04 11:50 | 38.15259 | 141.03361 | 1475 ft | 130 kts | 266° |
| 2026-05-04 11:50 | 38.15143 | 141.02222 | 1363 ft | 129 kts | 266° |
| 2026-05-04 11:50 | 38.15030 | 141.01125 | 1233 ft | 123 kts | 267° |
| 2026-05-04 11:50 | 38.14921 | 141.00052 | 1072 ft | 122 kts | 266° |
| 2026-05-04 11:51 | 38.14812 | 140.98987 | 908 ft | 122 kts | 266° |
| 2026-05-04 11:51 | 38.14702 | 140.97908 | 751 ft | 123 kts | 263° |
| 2026-05-04 11:51 | 38.14593 | 140.96840 | 593 ft | 126 kts | 264° |
| 2026-05-04 11:51 | 38.14483 | 140.95734 | 443 ft | 126 kts | 261° |
| 2026-05-04 11:52 | 38.14369 | 140.94630 | 289 ft | 126 kts | 259° |
| 2026-05-04 11:52 | 38.14256 | 140.93537 | 110 ft | 125 kts | 259° |
| 2026-05-04 11:52 | 38.14148 | 140.92481 | 21 ft | 110 kts | 261° |
| 2026-05-04 11:52 | 38.14065 | 140.91704 | 15 ft | 62 kts | 262° |
| 2026-05-04 11:53 | 38.14032 | 140.91424 | 16 ft | 13 kts | 249° |
| 2026-05-04 11:53 | 38.13963 | 140.91433 | 14 ft | 12 kts | 129° |
| 2026-05-04 11:53 | 38.13914 | 140.91547 | 15 ft | 17 kts | 117° |
| 2026-05-04 11:53 | 38.13894 | 140.91664 | 14 ft | 13 kts | 83° |
| 2026-05-04 11:55 | 38.14016 | 140.92866 | 14 ft | 10 kts | 84° |
| 2026-05-04 11:55 | 38.13972 | 140.92917 | 13 ft | 9 kts | 170° |
| 2026-05-04 11:56 | 38.13911 | 140.92925 | 12 ft | 7 kts | 173° |
| 2026-05-04 11:56 | 38.13889 | 140.92929 | 13 ft | 2 kts | 173° |
| 2026-05-04 11:56 | 38.13885 | 140.92929 | 12 ft | 0 kts | 173° |